Time;durP1;ratioP1;P1;durP2;ratioP2;P2;SDS_P1;SDS_P2;PMS_P1;PMS_P2;Temp;Humidity;BMP_temperature;BMP_pressure;BME280_temperature;BME280_humidity;BME280_pressure;Samples;Min_cycle;Max_cycle;Signal;HPM_P1;HPM_P2
2023/03/31 11:52:29;;;;;;;12.18;3.50;;;14.50;99.90;;;;;;5085697;27;20969;-64
2023/03/31 11:55:04;;;;;;;13.13;4.10;;;14.30;99.90;;;;;;5072024;28;20132;-63
2023/03/31 11:57:36;;;;;;;18.60;3.70;;;14.30;99.90;;;;;;5083221;28;20039;-63
2023/03/31 12:00:18;;;;;;;10.77;3.58;;;14.30;99.90;;;;;;5078994;28;20384;-64
2023/03/31 12:02:57;;;;;;;13.45;3.67;;;14.50;99.90;;;;;;5081500;28;20126;-63
2023/03/31 12:05:26;;;;;;;12.57;2.85;;;14.70;99.90;;;;;;5077825;28;20131;-63
2023/03/31 12:08:11;;;;;;;15.93;3.60;;;14.60;99.90;;;;;;5085378;28;20115;-63
2023/03/31 12:10:40;;;;;;;16.60;4.05;;;14.60;99.90;;;;;;5079295;28;20052;-64
2023/03/31 12:13:28;;;;;;;11.02;2.90;;;14.70;99.90;;;;;;5073639;28;20052;-62
2023/03/31 12:16:03;;;;;;;11.88;2.85;;;14.70;99.90;;;;;;5085775;28;20135;-62
2023/03/31 12:18:34;;;;;;;10.93;2.67;;;14.50;99.90;;;;;;5083640;28;20119;-63
2023/03/31 12:21:03;;;;;;;13.93;3.03;;;14.30;99.90;;;;;;5074083;28;20045;-63
2023/03/31 12:23:34;;;;;;;9.10;2.80;;;14.30;99.90;;;;;;5086319;28;20045;-62
2023/03/31 12:26:10;;;;;;;12.75;2.70;;;14.10;99.90;;;;;;5085794;28;20119;-62
2023/03/31 12:28:39;;;;;;;11.70;2.53;;;14.00;99.90;;;;;;5082768;28;20110;-62
2023/03/31 12:31:09;;;;;;;12.18;2.60;;;14.00;99.90;;;;;;5082912;28;20040;-64
2023/03/31 12:33:41;;;;;;;12.20;2.67;;;13.90;99.90;;;;;;5076049;28;20364;-63
2023/03/31 12:36:23;;;;;;;14.35;2.95;;;14.00;99.90;;;;;;5079369;28;20064;-62
2023/03/31 12:39:13;;;;;;;12.48;2.85;;;14.20;99.90;;;;;;5081188;28;20119;-63
2023/03/31 12:42:20;;;;;;;13.57;2.40;;;14.20;99.90;;;;;;5085078;28;20044;-62
2023/03/31 12:45:05;;;;;;;11.30;2.97;;;14.20;99.90;;;;;;5085865;28;20466;-62
2023/03/31 12:47:41;;;;;;;;;;;14.10;99.90;;;;;;5085760;28;20119;-62
2023/03/31 12:50:25;;;;;;;;;;;14.10;99.90;;;;;;5076627;28;20275;-62
2023/03/31 12:53:07;;;;;;;10.30;2.13;;;14.10;99.90;;;;;;5086675;28;19921;-62
2023/03/31 12:55:44;;;;;;;9.07;2.17;;;14.30;99.90;;;;;;5079996;28;20036;-63
2023/03/31 12:58:28;;;;;;;8.15;2.20;;;14.50;99.90;;;;;;5076482;28;20044;-62
2023/03/31 13:01:22;;;;;;;9.95;2.55;;;14.50;99.90;;;;;;5084348;28;20163;-63
2023/03/31 13:03:47;;;;;;;8.68;2.22;;;14.50;99.90;;;;;;5062243;28;20064;-63
2023/03/31 13:06:28;;;;;;;9.20;2.55;;;14.10;99.90;;;;;;5077980;28;20480;-62
2023/03/31 13:09:07;;;;;;;11.63;2.70;;;13.90;99.90;;;;;;5071416;28;20040;-62
2023/03/31 13:11:32;;;;;;;11.15;1.90;;;13.70;99.90;;;;;;5062534;28;20043;-63
2023/03/31 13:14:01;;;;;;;11.18;2.33;;;13.70;99.90;;;;;;5068626;28;20128;-63
2023/03/31 13:16:28;;;;;;;9.15;1.90;;;13.70;99.90;;;;;;5066379;28;20150;-62
2023/03/31 13:18:55;;;;;;;7.10;1.73;;;13.70;99.90;;;;;;5067618;28;20079;-63
2023/03/31 13:21:21;;;;;;;11.43;2.53;;;13.80;99.90;;;;;;5064395;28;20045;-62
2023/03/31 13:23:48;;;;;;;10.70;2.08;;;13.90;99.90;;;;;;5062724;28;20044;-63
2023/03/31 13:26:32;;;;;;;9.15;1.95;;;14.00;99.90;;;;;;5061514;28;20080;-63
2023/03/31 13:29:24;;;;;;;6.30;1.30;;;14.10;99.90;;;;;;5071506;28;20120;-63
2023/03/31 13:31:59;;;;;;;6.22;1.38;;;14.10;99.90;;;;;;5069890;28;20040;-62
2023/03/31 13:34:29;;;;;;;4.28;1.20;;;14.10;99.90;;;;;;5071432;28;20041;-62
2023/03/31 13:37:12;;;;;;;5.65;1.20;;;14.10;99.90;;;;;;5063676;28;20186;-64
2023/03/31 13:40:16;;;;;;;5.47;1.17;;;14.20;99.90;;;;;;5068293;28;20098;-63
2023/03/31 13:43:05;;;;;;;4.65;1.20;;;14.10;99.90;;;;;;5066354;28;20071;-63
2023/03/31 13:46:10;;;;;;;5.10;1.27;;;14.00;99.90;;;;;;5065223;28;20430;-64
2023/03/31 13:48:58;;;;;;;4.45;1.17;;;14.00;99.90;;;;;;5057387;28;20151;-62
2023/03/31 13:51:47;;;;;;;5.95;1.38;;;13.90;99.90;;;;;;5060237;28;21689;-63
2023/03/31 13:54:28;;;;;;;8.60;1.70;;;13.80;99.90;;;;;;5068226;28;20048;-62
2023/03/31 13:57:21;;;;;;;4.38;1.30;;;13.70;99.90;;;;;;5063654;28;20048;-63
2023/03/31 14:00:11;;;;;;;6.47;1.77;;;13.70;99.90;;;;;;5059511;28;20522;-63
2023/03/31 14:03:10;;;;;;;7.05;1.20;;;13.60;99.90;;;;;;5058419;28;20049;-63
2023/03/31 14:06:00;;;;;;;6.65;1.25;;;13.60;99.90;;;;;;5056686;28;20437;-63
2023/03/31 14:08:42;;;;;;;4.63;1.40;;;13.80;99.90;;;;;;5056802;28;20107;-62
2023/03/31 14:11:21;;;;;;;5.93;1.42;;;13.80;99.90;;;;;;5060327;28;20384;-63
2023/03/31 14:14:10;;;;;;;6.47;1.30;;;13.90;99.90;;;;;;5058982;28;20040;-64
2023/03/31 14:16:44;;;;;;;6.35;1.50;;;14.10;99.90;;;;;;5060097;28;20790;-62
2023/03/31 14:19:22;;;;;;;6.22;1.50;;;14.10;99.90;;;;;;5062975;28;20071;-63
2023/03/31 14:21:52;;;;;;;6.90;1.63;;;14.10;99.90;;;;;;5071478;28;20119;-63
2023/03/31 14:24:42;;;;;;;7.97;1.80;;;14.20;99.90;;;;;;5067781;28;20040;-62
2023/03/31 14:27:28;;;;;;;8.73;2.00;;;14.20;99.90;;;;;;5061818;28;20084;-62
2023/03/31 14:30:26;;;;;;;7.40;1.80;;;14.20;99.90;;;;;;5055836;28;20042;-62
2023/03/31 14:33:12;;;;;;;8.35;1.73;;;14.30;99.90;;;;;;5065812;28;20040;-62
2023/03/31 14:35:51;;;;;;;7.40;2.10;;;14.40;99.90;;;;;;5068513;28;20049;-62
2023/03/31 14:38:20;;;;;;;7.15;2.20;;;14.40;99.90;;;;;;5071241;28;20115;-63
2023/03/31 14:40:49;;;;;;;10.77;2.88;;;14.40;99.90;;;;;;5058593;28;20392;-62
2023/03/31 14:43:21;;;;;;;7.95;2.33;;;14.60;99.90;;;;;;5065793;28;20071;-63
2023/03/31 14:45:58;;;;;;;9.35;1.92;;;14.60;99.90;;;;;;5071096;28;20127;-63
2023/03/31 14:48:27;;;;;;;9.98;2.28;;;14.70;99.90;;;;;;5070469;28;20072;-63
2023/03/31 14:50:57;;;;;;;8.73;1.92;;;14.70;99.90;;;;;;5067830;28;20454;-63
2023/03/31 14:53:24;;;;;;;10.10;2.25;;;14.70;99.90;;;;;;5070018;28;20458;-62
2023/03/31 14:55:53;;;;;;;10.82;2.45;;;14.60;99.90;;;;;;5064615;28;20052;-63
2023/03/31 14:58:34;;;;;;;6.57;1.92;;;14.70;99.90;;;;;;5061545;28;20124;-63
2023/03/31 15:01:02;;;;;;;10.85;2.13;;;14.60;99.90;;;;;;5069748;28;20131;-63
2023/03/31 15:03:30;;;;;;;8.77;2.08;;;14.60;99.90;;;;;;5064881;28;20513;-63
2023/03/31 15:06:00;;;;;;;6.93;1.70;;;14.50;99.90;;;;;;5070541;28;20037;-64
2023/03/31 15:08:29;;;;;;;6.25;1.90;;;14.30;99.90;;;;;;5069886;28;20036;-63
2023/03/31 15:11:02;;;;;;;6.65;1.83;;;14.40;99.90;;;;;;5063583;28;20036;-63
2023/03/31 15:13:44;;;;;;;10.05;2.13;;;14.40;99.90;;;;;;5068638;28;20054;-63
2023/03/31 15:16:19;;;;;;;9.38;2.53;;;14.30;99.90;;;;;;5067884;28;20417;-63
2023/03/31 15:18:45;;;;;;;9.52;1.95;;;14.20;99.90;;;;;;5060960;28;20033;-64
2023/03/31 15:21:21;;;;;;;10.20;2.17;;;14.20;99.90;;;;;;5060937;28;20121;-64
2023/03/31 15:23:49;;;;;;;8.73;2.20;;;14.20;99.90;;;;;;5068447;28;20042;-64
2023/03/31 15:26:17;;;;;;;8.38;1.90;;;14.00;99.90;;;;;;5062948;28;20045;-64
2023/03/31 15:28:53;;;;;;;9.23;2.08;;;14.00;99.90;;;;;;5056234;28;20044;-64
2023/03/31 15:31:19;;;;;;;12.73;2.50;;;13.80;99.90;;;;;;5058583;28;20361;-64
2023/03/31 15:33:46;;;;;;;13.00;2.60;;;13.60;99.90;;;;;;5058809;28;20051;-64
2023/03/31 15:36:12;;;;;;;8.10;2.00;;;13.50;99.90;;;;;;5062586;28;20337;-64
2023/03/31 15:38:38;;;;;;;8.70;2.20;;;13.50;99.90;;;;;;5064052;28;20422;-63
2023/03/31 15:41:15;;;;;;;9.43;2.70;;;13.50;99.90;;;;;;5060054;28;20044;-63
2023/03/31 15:43:42;;;;;;;10.30;2.28;;;13.60;99.90;;;;;;5054803;28;20090;-64
2023/03/31 15:46:15;;;;;;;9.48;2.53;;;13.70;99.90;;;;;;5055210;28;20172;-65
2023/03/31 15:48:54;;;;;;;9.05;2.05;;;13.80;99.90;;;;;;5064725;28;20101;-64
2023/03/31 15:51:39;;;;;;;9.38;2.00;;;13.80;99.90;;;;;;5064021;28;20194;-65
2023/03/31 15:54:28;;;;;;;7.05;2.03;;;13.70;99.90;;;;;;5064342;28;20050;-65
2023/03/31 15:56:58;;;;;;;6.07;1.60;;;13.70;99.90;;;;;;5067957;28;20049;-64
2023/03/31 15:59:26;;;;;;;8.50;2.05;;;13.80;99.90;;;;;;5065145;28;20044;-63
2023/03/31 16:01:53;;;;;;;9.63;2.75;;;13.80;99.90;;;;;;5061029;28;20093;-65
2023/03/31 16:04:19;;;;;;;7.68;2.50;;;13.80;99.90;;;;;;5066317;28;20158;-64
2023/03/31 16:06:56;;;;;;;7.07;2.00;;;13.90;99.90;;;;;;5065726;28;20146;-64
2023/03/31 16:09:37;;;;;;;17.45;11.55;;;13.90;99.90;;;;;;5064236;28;20064;-63
2023/03/31 16:12:09;;;;;;;9.23;2.90;;;13.80;99.90;;;;;;5071424;28;20679;-64
2023/03/31 16:14:42;;;;;;;7.60;2.83;;;13.70;99.90;;;;;;5065441;28;20041;-64
2023/03/31 16:17:25;;;;;;;4.75;1.90;;;13.70;99.90;;;;;;5067433;28;20036;-63
2023/03/31 16:19:59;;;;;;;8.63;4.13;;;13.60;99.90;;;;;;5065330;28;20052;-63
2023/03/31 16:22:30;;;;;;;7.85;3.03;;;13.50;99.90;;;;;;5068038;28;20071;-64
2023/03/31 16:24:55;;;;;;;6.75;2.83;;;13.50;99.90;;;;;;5069462;28;20173;-63
2023/03/31 16:27:22;;;;;;;5.32;1.35;;;13.40;99.90;;;;;;5070924;28;20499;-62
2023/03/31 16:29:47;;;;;;;6.07;1.50;;;13.40;99.90;;;;;;5071623;28;20439;-62
2023/03/31 16:32:18;;;;;;;6.65;2.50;;;13.30;99.90;;;;;;5065208;28;20082;-65
2023/03/31 16:35:01;;;;;;;6.20;1.83;;;13.30;99.90;;;;;;5065169;28;20064;-64
2023/03/31 16:37:27;;;;;;;7.47;1.75;;;13.30;99.90;;;;;;5068424;28;20072;-65
2023/03/31 16:39:53;;;;;;;5.93;1.67;;;13.20;99.90;;;;;;5063642;28;20159;-64
2023/03/31 16:42:20;;;;;;;6.15;1.70;;;13.20;99.90;;;;;;5054851;28;20136;-64
2023/03/31 16:44:45;;;;;;;4.38;1.33;;;13.20;99.90;;;;;;5061819;28;20052;-64
2023/03/31 16:47:12;;;;;;;5.55;1.45;;;13.10;99.90;;;;;;5066063;28;20407;-63
2023/03/31 16:49:37;;;;;;;5.65;1.58;;;13.10;99.90;;;;;;5064846;28;20049;-64
2023/03/31 16:52:04;;;;;;;5.65;1.30;;;13.10;99.90;;;;;;5063786;28;20049;-64
2023/03/31 16:54:30;;;;;;;5.80;1.35;;;13.10;99.90;;;;;;5059758;28;20460;-64
2023/03/31 16:56:56;;;;;;;5.25;1.60;;;13.10;99.90;;;;;;5052115;28;20380;-65
2023/03/31 16:59:22;;;;;;;7.40;1.77;;;13.10;99.90;;;;;;5067683;28;20040;-64
2023/03/31 17:01:48;;;;;;;4.60;1.38;;;13.10;99.90;;;;;;5070293;28;20170;-64
2023/03/31 17:04:14;;;;;;;6.53;1.52;;;13.00;99.90;;;;;;5067872;28;20044;-65
2023/03/31 17:06:40;;;;;;;6.78;1.80;;;13.00;99.90;;;;;;5061884;28;20479;-63
2023/03/31 17:09:05;;;;;;;5.07;1.45;;;13.00;99.90;;;;;;5064646;28;20086;-64
2023/03/31 17:11:31;;;;;;;5.22;1.60;;;13.00;99.90;;;;;;5063328;28;20051;-63
2023/03/31 17:13:58;;;;;;;5.63;1.48;;;13.00;99.90;;;;;;5063337;28;20482;-63
2023/03/31 17:16:25;;;;;;;6.43;1.60;;;13.00;99.90;;;;;;5073272;28;20147;-63
2023/03/31 17:18:51;;;;;;;5.82;1.50;;;12.90;99.90;;;;;;5068165;28;20106;-63
2023/03/31 17:21:17;;;;;;;4.80;1.30;;;12.90;99.90;;;;;;5066486;28;20079;-63
2023/03/31 17:23:45;;;;;;;4.65;1.60;;;12.80;99.90;;;;;;5069135;28;20056;-63
2023/03/31 17:26:11;;;;;;;5.43;1.52;;;12.80;99.90;;;;;;5073090;28;20048;-62
2023/03/31 17:28:37;;;;;;;6.20;1.52;;;12.80;99.90;;;;;;5071523;28;20080;-64
2023/03/31 17:31:17;;;;;;;5.32;1.63;;;12.80;99.90;;;;;;5074858;28;20040;-63
2023/03/31 17:33:43;;;;;;;6.28;1.80;;;12.80;99.90;;;;;;5070165;28;20490;-63
2023/03/31 17:36:10;;;;;;;5.30;1.60;;;12.70;99.90;;;;;;5073282;28;20082;-63
2023/03/31 17:38:37;;;;;;;5.18;1.50;;;12.70;99.90;;;;;;5071760;28;20048;-63
2023/03/31 17:41:08;;;;;;;5.43;1.60;;;12.60;99.90;;;;;;5071265;28;20475;-62
2023/03/31 17:43:34;;;;;;;5.18;1.50;;;12.60;99.90;;;;;;5074469;28;20114;-63
2023/03/31 17:46:10;;;;;;;5.38;1.55;;;12.60;99.90;;;;;;5074677;28;20040;-63
2023/03/31 17:48:37;;;;;;;4.30;1.40;;;12.50;99.90;;;;;;5071005;28;20052;-63
2023/03/31 17:51:13;;;;;;;3.58;1.50;;;12.50;99.90;;;;;;5071579;28;20057;-63
2023/03/31 17:53:39;;;;;;;4.45;1.50;;;12.50;99.90;;;;;;5073035;28;20167;-63
2023/03/31 17:56:05;;;;;;;5.90;1.58;;;12.50;99.90;;;;;;5072207;28;20041;-63
2023/03/31 17:58:31;;;;;;;6.07;1.52;;;12.40;99.90;;;;;;5072430;28;20343;-63
2023/03/31 18:00:58;;;;;;;4.85;1.60;;;12.40;99.90;;;;;;5072163;28;20126;-64
2023/03/31 18:03:24;;;;;;;6.07;1.30;;;12.40;99.90;;;;;;5068045;28;20104;-63
2023/03/31 18:05:52;;;;;;;3.78;1.60;;;12.40;99.90;;;;;;5072110;28;20515;-64
2023/03/31 18:08:20;;;;;;;4.03;1.60;;;12.30;99.90;;;;;;5076140;28;20243;-61
2023/03/31 18:10:46;;;;;;;5.20;1.63;;;12.30;99.90;;;;;;5075115;28;20463;-62
2023/03/31 18:13:12;;;;;;;6.05;1.85;;;12.30;99.90;;;;;;5071327;28;20036;-61
2023/03/31 18:15:38;;;;;;;4.55;1.77;;;12.20;99.90;;;;;;5072317;28;20547;-61
2023/03/31 18:18:04;;;;;;;6.10;1.65;;;12.20;99.90;;;;;;5072571;28;20097;-61
2023/03/31 18:20:31;;;;;;;4.65;1.67;;;12.10;99.90;;;;;;5067254;28;20076;-62
2023/03/31 18:22:56;;;;;;;3.78;1.45;;;12.10;99.90;;;;;;5066329;28;20049;-62
2023/03/31 18:25:22;;;;;;;2.92;1.20;;;12.10;99.90;;;;;;5067932;28;20036;-62
2023/03/31 18:27:47;;;;;;;4.75;1.30;;;12.00;99.90;;;;;;5073646;28;20336;-61
2023/03/31 18:30:14;;;;;;;4.65;1.40;;;12.00;99.90;;;;;;5068181;28;20110;-61
2023/03/31 18:32:39;;;;;;;4.18;1.20;;;11.90;99.90;;;;;;5070952;28;20044;-62
2023/03/31 18:35:05;;;;;;;5.18;1.40;;;11.90;99.90;;;;;;5067531;28;20059;-62
2023/03/31 18:37:32;;;;;;;2.75;1.20;;;11.90;99.90;;;;;;5069335;28;21637;-61
2023/03/31 18:39:58;;;;;;;3.85;1.38;;;11.80;99.90;;;;;;5064183;28;20051;-62
2023/03/31 18:42:24;;;;;;;4.40;1.63;;;11.80;99.90;;;;;;5060358;28;20049;-62
2023/03/31 18:44:52;;;;;;;4.15;1.75;;;11.80;99.90;;;;;;5070547;28;20395;-61
2023/03/31 18:47:19;;;;;;;4.22;1.52;;;11.80;99.90;;;;;;5057902;28;20272;-61
2023/03/31 18:49:46;;;;;;;6.00;2.50;;;11.80;99.90;;;;;;5067253;28;20044;-62
2023/03/31 18:52:12;;;;;;;3.63;1.65;;;11.80;99.90;;;;;;5064086;28;20532;-61
2023/03/31 18:54:37;;;;;;;3.60;1.50;;;11.80;99.90;;;;;;5057906;28;20167;-62
2023/03/31 18:57:03;;;;;;;5.53;1.67;;;11.80;99.90;;;;;;5065430;28;20040;-61
2023/03/31 18:59:28;;;;;;;3.72;1.40;;;11.70;99.90;;;;;;5061979;28;20075;-62
2023/03/31 19:01:54;;;;;;;4.15;1.40;;;11.80;99.90;;;;;;5069721;28;20044;-61
2023/03/31 19:04:20;;;;;;;5.43;1.40;;;11.70;99.90;;;;;;5070582;28;20497;-63
2023/03/31 19:06:45;;;;;;;2.95;1.27;;;11.70;99.90;;;;;;5074009;28;20040;-61
2023/03/31 19:09:11;;;;;;;6.00;1.60;;;11.70;99.90;;;;;;5066591;28;20158;-60
2023/03/31 19:11:37;;;;;;;4.10;1.85;;;11.70;99.90;;;;;;5070218;28;20040;-61
2023/03/31 19:14:02;;;;;;;3.33;1.33;;;11.70;99.90;;;;;;5072953;28;20400;-61
2023/03/31 19:16:28;;;;;;;3.88;1.48;;;11.70;99.90;;;;;;5065430;28;20079;-60
2023/03/31 19:18:54;;;;;;;4.28;1.40;;;11.60;99.90;;;;;;5061525;28;20129;-61
2023/03/31 19:21:20;;;;;;;3.50;1.40;;;11.70;99.90;;;;;;5065980;28;20115;-61
2023/03/31 19:23:46;;;;;;;4.10;1.75;;;11.60;99.90;;;;;;5062141;28;20101;-61
2023/03/31 19:26:15;;;;;;;3.33;1.60;;;11.60;99.90;;;;;;5063802;28;20639;-61
2023/03/31 19:28:41;;;;;;;3.90;1.60;;;11.60;99.90;;;;;;5065010;28;20048;-61
2023/03/31 19:31:06;;;;;;;3.60;1.40;;;11.60;99.90;;;;;;5068210;28;20098;-61
2023/03/31 19:33:32;;;;;;;4.10;1.80;;;11.60;99.90;;;;;;5068559;28;20044;-61
2023/03/31 19:35:59;;;;;;;4.63;1.60;;;11.60;99.90;;;;;;5067614;28;20097;-61
2023/03/31 19:38:25;;;;;;;3.35;1.50;;;11.60;99.90;;;;;;5068321;28;20074;-60
2023/03/31 19:40:51;;;;;;;2.90;1.55;;;11.60;99.90;;;;;;5060285;28;20136;-60
2023/03/31 19:43:23;;;;;;;3.83;2.05;;;11.60;99.90;;;;;;5063733;28;20430;-62
2023/03/31 19:45:51;;;;;;;5.72;1.75;;;11.50;99.90;;;;;;5064563;28;20052;-61
2023/03/31 19:48:18;;;;;;;3.90;1.80;;;11.50;99.90;;;;;;5065919;28;20151;-61
2023/03/31 19:50:50;;;;;;;7.18;2.05;;;11.50;99.90;;;;;;5067639;28;20047;-62
2023/03/31 19:53:16;;;;;;;4.35;1.80;;;11.50;99.90;;;;;;5062698;28;20037;-61
2023/03/31 19:55:42;;;;;;;4.35;2.08;;;11.50;99.90;;;;;;5071073;28;20040;-61
2023/03/31 19:58:08;;;;;;;7.35;2.50;;;11.50;99.90;;;;;;5069778;28;20052;-62
2023/03/31 20:00:34;;;;;;;4.30;2.33;;;11.40;99.90;;;;;;5068170;28;20101;-62
2023/03/31 20:02:59;;;;;;;6.18;2.30;;;11.40;99.90;;;;;;5063019;28;20045;-61
2023/03/31 20:05:26;;;;;;;5.63;2.80;;;11.40;99.90;;;;;;5070638;28;20040;-61
2023/03/31 20:07:52;;;;;;;4.07;2.47;;;11.40;99.90;;;;;;5066982;28;20033;-62
2023/03/31 20:10:17;;;;;;;5.07;2.70;;;11.30;99.90;;;;;;5067501;28;20074;-62
2023/03/31 20:12:44;;;;;;;4.65;2.45;;;11.30;99.90;;;;;;5065208;28;20396;-61
2023/03/31 20:15:12;;;;;;;4.13;2.45;;;11.30;99.90;;;;;;5076623;28;20041;-62
2023/03/31 20:17:37;;;;;;;4.40;2.35;;;11.30;99.90;;;;;;5069204;28;20041;-61
2023/03/31 20:20:03;;;;;;;4.15;2.60;;;11.30;99.90;;;;;;5070220;28;20039;-61
2023/03/31 20:22:29;;;;;;;3.95;2.63;;;11.30;99.90;;;;;;5071436;28;20144;-62
2023/03/31 20:24:55;;;;;;;4.95;3.20;;;11.30;99.90;;;;;;5069498;28;20118;-63
2023/03/31 20:27:25;;;;;;;5.63;2.95;;;11.30;99.90;;;;;;5060002;28;20091;-62
2023/03/31 20:29:50;;;;;;;6.40;3.70;;;11.30;99.90;;;;;;5057895;28;20040;-62
2023/03/31 20:32:16;;;;;;;5.38;3.00;;;11.30;99.90;;;;;;5061832;28;20059;-62
2023/03/31 20:34:42;;;;;;;4.78;3.17;;;11.30;99.90;;;;;;5058151;28;20040;-62
2023/03/31 20:37:07;;;;;;;5.53;3.35;;;11.30;99.90;;;;;;5056030;28;20166;-62
2023/03/31 20:39:33;;;;;;;6.63;3.40;;;11.30;99.90;;;;;;5056675;28;20373;-63
2023/03/31 20:41:58;;;;;;;4.85;3.28;;;11.30;99.90;;;;;;5063748;28;20113;-62
2023/03/31 20:44:24;;;;;;;5.25;3.15;;;11.30;99.90;;;;;;5062581;28;20066;-62
2023/03/31 20:46:51;;;;;;;6.95;3.50;;;11.30;99.90;;;;;;5061967;28;20041;-62
2023/03/31 20:49:16;;;;;;;5.15;3.08;;;11.30;99.90;;;;;;5064247;28;20119;-62
2023/03/31 20:51:43;;;;;;;5.90;3.15;;;11.30;99.90;;;;;;5061613;28;20060;-62
2023/03/31 20:54:09;;;;;;;4.97;3.13;;;11.20;99.90;;;;;;5057204;28;20053;-62
2023/03/31 20:56:39;;;;;;;5.22;3.20;;;11.20;99.90;;;;;;5061919;28;20373;-62
2023/03/31 20:59:07;;;;;;;4.63;3.00;;;11.20;99.90;;;;;;5069265;28;20032;-62
2023/03/31 21:01:34;;;;;;;6.97;3.60;;;11.20;99.90;;;;;;5064202;28;20056;-62
2023/03/31 21:04:01;;;;;;;6.65;3.28;;;11.20;99.90;;;;;;5057369;28;20098;-62
2023/03/31 21:06:29;;;;;;;6.68;3.58;;;11.20;99.90;;;;;;5058245;28;20051;-62
2023/03/31 21:08:56;;;;;;;4.90;3.45;;;11.20;99.90;;;;;;5065131;28;20045;-62
2023/03/31 21:11:23;;;;;;;5.75;3.33;;;11.20;99.90;;;;;;5060473;28;20033;-63
2023/03/31 21:13:49;;;;;;;6.57;3.80;;;11.20;99.90;;;;;;5068110;28;20037;-62
2023/03/31 21:16:15;;;;;;;6.18;3.63;;;11.20;99.90;;;;;;5062379;28;20041;-62
2023/03/31 21:18:41;;;;;;;4.45;3.08;;;11.20;99.90;;;;;;5067704;28;20084;-62
2023/03/31 21:21:12;;;;;;;7.22;3.28;;;11.20;99.90;;;;;;5065090;28;20076;-62
2023/03/31 21:23:38;;;;;;;5.53;3.25;;;11.20;99.90;;;;;;5061731;28;20041;-62
2023/03/31 21:26:06;;;;;;;5.53;3.40;;;11.20;99.90;;;;;;5056804;28;20427;-62
2023/03/31 21:28:35;;;;;;;5.55;3.10;;;11.10;99.90;;;;;;5058297;28;20063;-62
2023/03/31 21:31:09;;;;;;;6.88;3.45;;;11.10;99.90;;;;;;5054737;28;20126;-62
2023/03/31 21:33:37;;;;;;;5.72;3.25;;;11.10;99.90;;;;;;5068442;28;20045;-62
2023/03/31 21:36:05;;;;;;;6.70;3.83;;;11.10;99.90;;;;;;5064007;28;20364;-63
2023/03/31 21:38:32;;;;;;;5.43;3.60;;;11.10;99.90;;;;;;5059540;28;20468;-61
2023/03/31 21:41:04;;;;;;;5.57;3.55;;;11.10;99.90;;;;;;5066080;28;20074;-62
2023/03/31 21:43:30;;;;;;;5.55;3.42;;;11.10;99.90;;;;;;5066708;28;20713;-62
2023/03/31 21:45:57;;;;;;;5.72;3.30;;;11.10;99.90;;;;;;5065101;28;20052;-63
2023/03/31 21:48:25;;;;;;;5.90;3.70;;;11.10;99.90;;;;;;5064357;28;20171;-61
2023/03/31 21:50:53;;;;;;;5.32;3.85;;;11.10;99.90;;;;;;5065986;28;20048;-62
2023/03/31 21:53:20;;;;;;;5.82;3.80;;;11.10;99.90;;;;;;5067752;28;20395;-63
2023/03/31 21:55:46;;;;;;;6.53;4.15;;;11.10;99.90;;;;;;5068967;28;20348;-61
2023/03/31 21:58:12;;;;;;;7.10;4.30;;;11.10;99.90;;;;;;5059518;28;20117;-62
2023/03/31 22:00:38;;;;;;;6.88;4.05;;;11.10;99.90;;;;;;5049167;28;20394;-62
2023/03/31 22:03:03;;;;;;;5.88;4.00;;;11.10;99.90;;;;;;5047582;28;20041;-62
2023/03/31 22:05:31;;;;;;;5.68;3.78;;;11.10;99.90;;;;;;5052964;28;20098;-62
2023/03/31 22:07:57;;;;;;;6.32;4.35;;;11.10;99.90;;;;;;5051347;28;20529;-62
2023/03/31 22:10:23;;;;;;;6.35;4.40;;;11.10;99.90;;;;;;5045128;28;20048;-62
2023/03/31 22:12:48;;;;;;;6.90;4.40;;;11.10;99.90;;;;;;5046702;28;20125;-62
2023/03/31 22:15:14;;;;;;;7.25;4.53;;;11.10;99.90;;;;;;5046107;28;20136;-62
2023/03/31 22:17:40;;;;;;;6.75;4.68;;;11.10;99.90;;;;;;5061149;28;20433;-62
2023/03/31 22:20:07;;;;;;;6.78;4.05;;;11.00;99.90;;;;;;5058978;28;20124;-62
2023/03/31 22:22:32;;;;;;;7.03;3.95;;;11.00;99.90;;;;;;5051193;28;20040;-63
2023/03/31 22:24:58;;;;;;;5.50;3.85;;;11.10;99.90;;;;;;5058361;28;20094;-62
2023/03/31 22:27:24;;;;;;;6.18;3.97;;;11.00;99.90;;;;;;5051422;28;20045;-62
2023/03/31 22:29:49;;;;;;;7.20;4.00;;;11.10;99.90;;;;;;5062772;28;20042;-62
2023/03/31 22:32:18;;;;;;;7.60;4.10;;;11.00;99.90;;;;;;5055921;28;20060;-62
2023/03/31 22:34:45;;;;;;;6.38;4.57;;;11.00;99.90;;;;;;5058016;28;20055;-63
2023/03/31 22:37:11;;;;;;;6.70;4.35;;;11.00;99.90;;;;;;5063207;28;20140;-62
2023/03/31 22:39:37;;;;;;;6.90;4.43;;;11.00;99.90;;;;;;5069000;28;20101;-63
2023/03/31 22:42:02;;;;;;;8.57;4.75;;;11.00;99.90;;;;;;5057613;28;20049;-63
2023/03/31 22:44:28;;;;;;;7.63;4.40;;;11.00;99.90;;;;;;5067289;28;20303;-63
2023/03/31 22:46:54;;;;;;;5.93;3.75;;;11.00;99.90;;;;;;5062115;28;20029;-63
2023/03/31 22:49:20;;;;;;;6.82;4.15;;;11.00;99.90;;;;;;5065181;28;20037;-63
2023/03/31 22:51:46;;;;;;;6.40;4.18;;;11.00;99.90;;;;;;5061882;28;20075;-63
2023/03/31 22:54:14;;;;;;;6.43;4.03;;;11.00;99.90;;;;;;5062779;28;20070;-63
2023/03/31 22:56:41;;;;;;;7.85;4.28;;;11.00;99.90;;;;;;5058662;28;20452;-63
2023/03/31 22:59:07;;;;;;;5.63;3.75;;;10.90;99.90;;;;;;5057907;28;20514;-63
2023/03/31 23:01:33;;;;;;;6.18;3.80;;;10.90;99.90;;;;;;5060454;28;20377;-63
2023/03/31 23:04:00;;;;;;;6.68;3.83;;;10.90;99.90;;;;;;5055871;28;20048;-63
2023/03/31 23:06:26;;;;;;;7.40;4.63;;;10.90;99.90;;;;;;5059646;28;20055;-63
2023/03/31 23:08:52;;;;;;;7.97;4.20;;;10.90;99.90;;;;;;5065409;28;20629;-63
2023/03/31 23:11:17;;;;;;;6.82;3.88;;;10.90;99.90;;;;;;5054068;28;20043;-63
2023/03/31 23:13:44;;;;;;;7.50;4.20;;;10.90;99.90;;;;;;5064134;28;20271;-63
2023/03/31 23:16:16;;;;;;;6.32;3.67;;;10.90;99.90;;;;;;5057174;28;20066;-63
2023/03/31 23:18:46;;;;;;;6.07;3.70;;;10.90;99.90;;;;;;5061318;28;20095;-63
2023/03/31 23:21:18;;;;;;;5.78;3.72;;;10.90;99.90;;;;;;5063056;28;20052;-63
2023/03/31 23:23:45;;;;;;;6.10;3.45;;;10.80;99.90;;;;;;5060179;28;20048;-63
2023/03/31 23:26:12;;;;;;;5.43;3.70;;;10.80;99.90;;;;;;5057243;28;20048;-63
2023/03/31 23:28:38;;;;;;;6.03;4.10;;;10.80;99.90;;;;;;5061106;28;20059;-63
2023/03/31 23:31:05;;;;;;;7.28;3.38;;;10.80;99.90;;;;;;5064239;28;20123;-63
2023/03/31 23:33:30;;;;;;;5.85;3.35;;;10.90;99.90;;;;;;5058740;28;20045;-63
2023/03/31 23:36:02;;;;;;;8.02;3.88;;;10.90;99.90;;;;;;5051095;28;20692;-63
2023/03/31 23:38:29;;;;;;;5.28;3.60;;;10.80;99.90;;;;;;5061045;28;20033;-63
2023/03/31 23:40:54;;;;;;;6.30;3.80;;;10.80;99.90;;;;;;5058872;28;20144;-63
2023/03/31 23:43:20;;;;;;;6.05;3.47;;;10.80;99.90;;;;;;5052428;28;20542;-62
2023/03/31 23:45:45;;;;;;;6.05;3.50;;;10.80;99.90;;;;;;5061886;28;20036;-63
2023/03/31 23:48:11;;;;;;;6.32;3.50;;;10.80;99.90;;;;;;5067021;28;20119;-62
2023/03/31 23:50:37;;;;;;;4.68;3.13;;;10.80;99.90;;;;;;5065084;28;20471;-62
2023/03/31 23:53:03;;;;;;;5.97;3.28;;;10.80;99.90;;;;;;5062169;28;20476;-63
2023/03/31 23:55:28;;;;;;;7.20;3.63;;;10.80;99.90;;;;;;5059569;28;20056;-63
2023/03/31 23:57:54;;;;;;;6.53;3.15;;;10.80;99.90;;;;;;5057163;28;20440;-63
